Time;durP1;ratioP1;P1;durP2;ratioP2;P2;SDS_P1;SDS_P2;PMS_P1;PMS_P2;Temp;Humidity;BMP_temperature;BMP_pressure;BME280_temperature;BME280_humidity;BME280_pressure;Samples;Min_cycle;Max_cycle;Signal;HPM_P1;HPM_P2
2021/10/28 00:14:24;;;;;;;89.42;38.53;;;;;;;3.48;100.00;100910.09;1733469;82;22106;-72
2021/10/28 00:16:51;;;;;;;100.15;41.40;;;;;;;3.46;100.00;100912.68;1733630;82;21085;-71
2021/10/28 00:19:18;;;;;;;100.90;43.25;;;;;;;3.48;100.00;100912.70;1733829;82;21030;-71
2021/10/28 00:21:45;;;;;;;106.20;42.35;;;;;;;3.48;100.00;100900.54;1733641;82;21088;-72
2021/10/28 00:24:13;;;;;;;97.53;43.90;;;;;;;3.49;100.00;100902.27;1733549;82;21639;-71
2021/10/28 00:26:43;;;;;;;92.02;38.98;;;;;;;3.53;100.00;100914.45;1733952;82;21120;-72
2021/10/28 00:29:16;;;;;;;75.55;35.35;;;;;;;3.51;100.00;100908.36;1733561;82;21667;-71
2021/10/28 00:31:45;;;;;;;84.83;37.78;;;;;;;3.51;100.00;100908.80;1733678;82;21683;-71
2021/10/28 00:34:14;;;;;;;85.70;38.30;;;;;;;3.49;100.00;100890.55;1733751;82;21058;-71
2021/10/28 00:36:42;;;;;;;77.42;32.15;;;;;;;3.46;100.00;100887.08;1734175;82;21034;-73
2021/10/28 00:39:09;;;;;;;92.12;37.80;;;;;;;3.45;100.00;100893.13;1712989;82;21293;-71
2021/10/28 00:41:36;;;;;;;89.25;36.58;;;;;;;3.44;100.00;100894.87;1733868;82;21021;-70
2021/10/28 00:44:04;;;;;;;86.45;36.75;;;;;;;3.44;100.00;100897.48;1733708;82;21030;-70
2021/10/28 00:46:33;;;;;;;109.63;42.45;;;;;;;3.43;100.00;100898.36;1733683;82;21039;-72
2021/10/28 00:49:01;;;;;;;101.55;43.17;;;;;;;3.44;100.00;100905.73;1733737;82;22154;-72
2021/10/28 00:51:29;;;;;;;96.50;41.10;;;;;;;3.45;100.00;100897.03;1738722;82;22177;-71
2021/10/28 00:53:57;;;;;;;100.97;42.50;;;;;;;3.47;100.00;100889.67;1747691;81;21093;-71
2021/10/28 00:56:25;;;;;;;99.92;43.80;;;;;;;3.50;100.00;100887.09;1748332;82;21603;-71
2021/10/28 00:58:52;;;;;;;92.97;39.05;;;;;;;3.56;100.00;100888.84;1747742;82;21072;-71
2021/10/28 01:01:20;;;;;;;98.22;42.43;;;;;;;3.58;100.00;100880.16;1747938;81;21136;-72
2021/10/28 01:03:49;;;;;;;99.87;41.80;;;;;;;3.62;100.00;100873.69;1746322;81;21983;-72
2021/10/28 01:06:15;;;;;;;87.88;40.88;;;;;;;3.64;100.00;100871.96;1718340;83;21048;-70
2021/10/28 01:08:44;;;;;;;94.20;40.33;;;;;;;3.67;100.00;100865.45;1717979;83;21040;-70
2021/10/28 01:11:11;;;;;;;88.65;41.40;;;;;;;3.71;100.00;100869.81;1743647;82;21038;-70
2021/10/28 01:13:39;;;;;;;78.40;39.08;;;;;;;3.74;100.00;100869.80;1748217;82;21064;-70
2021/10/28 01:16:06;;;;;;;76.92;36.40;;;;;;;3.78;100.00;100870.25;1747690;82;21110;-71
2021/10/28 01:18:35;;;;;;;73.12;37.45;;;;;;;3.81;100.00;100870.25;1747866;82;21025;-71
2021/10/28 01:21:03;;;;;;;70.05;32.17;;;;;;;3.81;100.00;100863.74;1747925;82;21181;-73
2021/10/28 01:23:30;;;;;;;82.33;36.38;;;;;;;3.82;100.00;100865.91;1747804;82;21003;-71
2021/10/28 01:26:04;;;;;;;65.52;33.85;;;;;;;3.81;100.00;100863.74;1747725;82;21096;-70
2021/10/28 01:28:33;;;;;;;78.83;38.10;;;;;;;3.81;100.00;100859.83;1748166;82;22089;-71
2021/10/28 01:31:04;;;;;;;78.75;38.60;;;;;;;3.79;100.00;100854.61;1747656;82;21068;-70
2021/10/28 01:33:30;;;;;;;75.40;40.43;;;;;;;3.78;100.00;100849.41;1748079;82;21125;-71
2021/10/28 01:35:58;;;;;;;80.25;39.38;;;;;;;3.77;100.00;100848.95;1747804;82;21351;-71
2021/10/28 01:38:29;;;;;;;68.40;36.50;;;;;;;3.75;100.00;100849.38;1747989;82;21184;-70
2021/10/28 01:40:58;;;;;;;76.60;40.20;;;;;;;3.75;100.00;100857.20;1746513;82;21725;-71
2021/10/28 01:43:25;;;;;;;84.95;40.50;;;;;;;3.75;100.00;100852.88;1747859;82;21089;-71
2021/10/28 01:45:52;;;;;;;67.40;34.50;;;;;;;3.74;100.00;100845.05;1747964;82;21041;-71
2021/10/28 01:48:18;;;;;;;82.97;39.95;;;;;;;3.73;100.00;100853.75;1747673;82;21085;-71
2021/10/28 01:50:46;;;;;;;58.63;30.20;;;;;;;3.75;100.00;100854.59;1747824;82;21048;-71
2021/10/28 01:53:13;;;;;;;60.03;29.80;;;;;;;3.77;100.00;100852.87;1742427;81;21123;-71
2021/10/28 01:55:40;;;;;;;71.75;33.28;;;;;;;3.78;100.00;100844.20;1741920;82;21109;-69
2021/10/28 01:58:07;;;;;;;53.95;28.73;;;;;;;3.78;100.00;100849.41;1741936;82;21386;-69
2021/10/28 02:00:35;;;;;;;71.15;35.88;;;;;;;3.79;100.00;100851.14;1741890;82;21053;-69
2021/10/28 02:03:01;;;;;;;66.07;33.73;;;;;;;3.78;100.00;100853.33;1742059;82;21537;-70
2021/10/28 02:05:29;;;;;;;62.83;32.30;;;;;;;3.80;100.00;100851.59;1719899;82;21100;-70
2021/10/28 02:07:57;;;;;;;71.15;36.48;;;;;;;3.80;100.00;100848.98;1712470;83;21081;-72
2021/10/28 02:10:24;;;;;;;73.35;36.85;;;;;;;3.80;100.00;100837.27;1712637;83;21064;-70
2021/10/28 02:12:51;;;;;;;80.85;38.25;;;;;;;3.79;100.00;100839.41;1712460;83;21591;-72
2021/10/28 02:15:19;;;;;;;74.12;37.45;;;;;;;3.81;100.00;100845.50;1712335;83;21129;-72
2021/10/28 02:17:46;;;;;;;75.92;37.58;;;;;;;3.83;100.00;100847.68;1712395;83;21129;-72
2021/10/28 02:20:15;;;;;;;67.08;35.80;;;;;;;3.85;100.00;100848.56;1712458;83;21101;-72
2021/10/28 02:22:43;;;;;;;78.57;38.28;;;;;;;3.88;100.00;100857.67;1712304;83;22252;-74
2021/10/28 02:25:11;;;;;;;69.53;35.70;;;;;;;3.87;100.00;100857.25;1712289;83;21060;-72
2021/10/28 02:27:39;;;;;;;71.95;37.75;;;;;;;3.86;100.00;100854.19;1712266;83;21053;-70
2021/10/28 02:30:08;;;;;;;77.78;37.67;;;;;;;3.82;100.00;100847.67;1712004;83;21116;-70
2021/10/28 02:32:35;;;;;;;56.28;30.75;;;;;;;3.79;100.00;100849.84;1734141;82;21015;-69
2021/10/28 02:35:03;;;;;;;73.02;33.70;;;;;;;3.78;100.00;100852.02;1675823;85;21118;-70
2021/10/28 02:37:30;;;;;;;44.63;24.65;;;;;;;3.76;100.00;100855.05;1699503;83;21702;-69
2021/10/28 02:39:57;;;;;;;70.37;35.58;;;;;;;3.73;100.00;100860.27;1699646;84;21574;-70
2021/10/28 02:42:24;;;;;;;61.88;32.30;;;;;;;3.70;100.00;100856.33;1699661;84;21347;-71
2021/10/28 02:44:51;;;;;;;70.47;35.48;;;;;;;3.69;100.00;100850.25;1699557;84;21671;-72
2021/10/28 02:47:17;;;;;;;79.10;38.67;;;;;;;3.68;100.00;100834.61;1699975;84;21070;-70
2021/10/28 02:49:44;;;;;;;72.82;36.77;;;;;;;3.65;100.00;100830.27;1699609;84;21021;-69
2021/10/28 02:52:12;;;;;;;69.20;35.65;;;;;;;3.64;100.00;100827.23;1697421;83;21108;-70
2021/10/28 02:54:38;;;;;;;71.77;38.10;;;;;;;3.67;100.00;100835.48;1739207;82;21149;-71
2021/10/28 02:57:08;;;;;;;76.95;39.10;;;;;;;3.69;100.00;100836.37;1739032;81;21053;-69
2021/10/28 02:59:35;;;;;;;75.87;38.02;;;;;;;3.70;100.00;100842.00;1739102;81;21032;-70
2021/10/28 03:02:01;;;;;;;80.00;39.83;;;;;;;3.69;100.00;100834.63;1739918;82;22108;-70
2021/10/28 03:04:28;;;;;;;73.12;37.83;;;;;;;3.70;100.00;100831.58;1728165;81;21010;-70
2021/10/28 03:06:56;;;;;;;74.97;38.80;;;;;;;3.69;100.00;100832.02;1670382;85;21133;-71
2021/10/28 03:09:25;;;;;;;75.05;39.45;;;;;;;3.72;100.00;100829.41;1670408;85;21085;-72
2021/10/28 03:11:56;;;;;;;86.87;43.20;;;;;;;3.73;100.00;100831.61;1704290;84;21054;-73
2021/10/28 03:14:30;;;;;;;85.07;43.02;;;;;;;3.73;100.00;100825.95;1704300;83;21063;-70
2021/10/28 03:17:03;;;;;;;75.60;40.23;;;;;;;3.76;100.00;100818.58;1703620;83;21552;-71
2021/10/28 03:19:43;;;;;;;67.22;37.42;;;;;;;3.79;100.00;100814.66;1702484;84;21172;-70
2021/10/28 03:25:48;;;;;;;61.23;33.02;;;;;;;3.81;100.00;100814.23;1704425;84;21038;-71
2021/10/28 03:27:25;;;;;;;76.95;42.75;;;;;;;3.84;100.00;100814.23;1663159;84;21033;-71
2021/10/28 03:29:52;;;;;;;79.25;42.78;;;;;;;3.87;100.00;100816.86;1670401;85;21100;-73
2021/10/28 03:32:20;;;;;;;86.53;45.48;;;;;;;3.87;100.00;100819.91;1678945;84;22157;-73
2021/10/28 03:34:52;;;;;;;76.60;40.78;;;;;;;3.87;100.00;100822.07;1660089;85;21022;-74
2021/10/28 03:45:28;;;;;;;80.77;42.10;;;;;;;3.84;100.00;100813.37;1718878;82;21782;-72
2021/10/28 03:58:34;;;;;;;84.00;41.58;;;;;;;4.01;100.00;100817.31;1718337;82;21157;-69
2021/10/28 04:06:21;;;;;;;82.67;44.73;;;;;;;4.12;100.00;100809.94;1681793;84;21041;-69
2021/10/28 04:16:53;;;;;;;87.78;46.85;;;;;;;4.28;100.00;100816.02;1685852;84;21101;-71
2021/10/28 04:29:48;;;;;;;74.07;39.08;;;;;;;4.48;100.00;100812.52;1672601;84;21173;-68
2021/10/28 04:32:15;;;;;;;74.32;41.05;;;;;;;4.50;100.00;100812.08;1683556;84;21073;-69
2021/10/28 04:34:44;;;;;;;75.15;41.08;;;;;;;4.53;100.00;100818.17;1704489;84;21053;-69
2021/10/28 04:37:10;;;;;;;76.97;40.00;;;;;;;4.59;100.00;100812.06;1711354;82;21105;-71
2021/10/28 04:39:38;;;;;;;75.32;38.10;;;;;;;4.61;100.00;100807.72;1717234;82;21627;-69
2021/10/28 04:42:05;;;;;;;77.10;40.38;;;;;;;4.65;100.00;100808.16;1719963;82;21069;-71
2021/10/28 04:44:32;;;;;;;76.72;41.13;;;;;;;4.69;100.00;100804.64;1658189;85;21092;-70
2021/10/28 04:46:59;;;;;;;86.63;46.20;;;;;;;4.73;100.00;100805.52;1681983;84;21096;-70
2021/10/28 04:49:26;;;;;;;85.22;43.17;;;;;;;4.76;100.00;100805.09;1683598;84;21118;-73
2021/10/28 04:51:53;;;;;;;80.05;40.90;;;;;;;4.81;100.00;100799.86;1679368;84;21322;-74
2021/10/28 04:54:21;;;;;;;80.40;44.10;;;;;;;4.86;100.00;100798.55;1689963;83;21101;-73
2021/10/28 04:56:47;;;;;;;80.55;41.95;;;;;;;4.90;100.00;100798.94;1674907;84;21098;-73
2021/10/28 04:59:14;;;;;;;83.90;41.00;;;;;;;4.92;100.00;100797.20;1671016;84;21092;-72
2021/10/28 05:01:41;;;;;;;77.12;41.33;;;;;;;4.99;100.00;100806.73;1692787;84;21132;-73
2021/10/28 05:04:08;;;;;;;81.30;41.28;;;;;;;5.04;100.00;100803.70;1712995;82;21515;-73
2021/10/28 05:06:35;;;;;;;80.77;41.48;;;;;;;5.06;100.00;100801.92;1728750;82;21109;-73
2021/10/28 05:09:03;;;;;;;79.10;42.43;;;;;;;5.13;100.00;100810.20;1740617;82;21026;-72
2021/10/28 05:11:30;;;;;;;80.30;42.08;;;;;;;5.16;100.00;100804.95;1727591;82;21041;-72
2021/10/28 05:13:57;;;;;;;83.58;44.13;;;;;;;5.19;100.00;100807.53;1719057;82;21125;-73
2021/10/28 05:16:24;;;;;;;78.67;40.43;;;;;;;5.22;100.00;100803.63;1739674;82;21014;-73
2021/10/28 05:18:52;;;;;;;72.03;39.65;;;;;;;5.24;100.00;100800.58;1741296;82;21116;-73
2021/10/28 05:21:21;;;;;;;71.05;37.80;;;;;;;5.30;100.00;100788.36;1721563;82;21009;-73
2021/10/28 05:23:48;;;;;;;74.42;40.25;;;;;;;5.34;100.00;100794.00;1741502;82;21045;-75
2021/10/28 05:26:15;;;;;;;75.70;40.98;;;;;;;5.37;100.00;100797.45;1741211;82;21509;-73
2021/10/28 05:28:42;;;;;;;77.67;39.80;;;;;;;5.43;100.00;100792.66;1741831;82;21075;-73
2021/10/28 05:31:08;;;;;;;76.47;42.00;;;;;;;5.47;100.00;100799.57;1741635;82;21069;-72
2021/10/28 05:33:35;;;;;;;76.07;40.83;;;;;;;5.53;100.00;100796.94;1741888;82;21532;-73
2021/10/28 05:36:02;;;;;;;76.82;42.80;;;;;;;5.60;100.00;100806.47;1722607;82;21127;-75
2021/10/28 05:38:29;;;;;;;81.00;44.60;;;;;;;5.64;100.00;100810.80;1728530;82;21493;-72
2021/10/28 05:40:55;;;;;;;83.58;43.73;;;;;;;5.71;100.00;100806.41;1725037;82;21115;-74
2021/10/28 05:43:22;;;;;;;76.70;41.10;;;;;;;5.74;100.00;100807.69;1713117;82;21604;-72
2021/10/28 05:45:50;;;;;;;82.78;41.40;;;;;;;5.80;100.00;100808.11;1731704;80;26714;-73
2021/10/28 05:48:16;;;;;;;81.97;42.60;;;;;;;5.85;100.00;100812.86;1731421;81;21120;-75
2021/10/28 05:50:45;;;;;;;73.90;40.85;;;;;;;5.92;100.00;100811.08;1723377;81;21524;-75
2021/10/28 05:53:11;;;;;;;76.00;40.90;;;;;;;5.99;100.00;100807.13;1731957;81;21142;-74
2021/10/28 05:55:38;;;;;;;75.57;42.98;;;;;;;6.07;100.00;100811.87;1722904;81;21075;-73
2021/10/28 05:58:04;;;;;;;73.02;40.75;;;;;;;6.16;100.00;100816.58;1734691;82;21074;-73
2021/10/28 06:00:30;;;;;;;77.82;41.55;;;;;;;6.23;100.00;100817.81;1719041;82;21171;-75
2021/10/28 06:02:57;;;;;;;77.15;40.48;;;;;;;6.31;100.00;100821.70;1728382;82;21097;-73
2021/10/28 06:05:24;;;;;;;60.70;35.33;;;;;;;6.40;100.00;100822.06;1727478;82;21585;-72
2021/10/28 06:07:50;;;;;;;64.07;33.60;;;;;;;6.50;100.00;100822.39;1719706;82;21076;-74
2021/10/28 06:10:17;;;;;;;63.13;34.13;;;;;;;6.62;100.00;100818.34;1721718;82;21040;-75
2021/10/28 06:12:49;;;;;;;60.03;33.45;;;;;;;6.73;100.00;100820.86;1716204;82;21637;-73
2021/10/28 06:15:14;;;;;;;55.40;32.30;;;;;;;6.85;100.00;100825.95;1714254;82;22183;-74
2021/10/28 06:17:57;;;;;;;54.40;32.45;;;;;;;6.88;100.00;100818.09;1727069;82;20991;-73
2021/10/28 06:20:22;;;;;;;62.25;34.60;;;;;;;7.06;100.00;100833.16;1736757;82;21085;-72
2021/10/28 06:22:49;;;;;;;66.97;33.70;;;;;;;7.14;100.00;100832.64;1734040;82;21089;-72
2021/10/28 06:25:18;;;;;;;62.27;33.90;;;;;;;7.21;100.00;100827.75;1725762;82;21094;-71
2021/10/28 06:27:44;;;;;;;63.15;33.35;;;;;;;7.27;100.00;100831.62;1734418;82;21115;-72
2021/10/28 06:30:12;;;;;;;62.08;33.65;;;;;;;7.34;100.00;100838.96;1723255;82;21088;-75
2021/10/28 06:32:52;;;;;;;65.55;34.33;;;;;;;7.42;100.00;100833.61;1732920;81;21114;-74
2021/10/28 06:35:18;;;;;;;59.35;34.20;;;;;;;7.47;100.00;100833.97;1722667;82;21016;-75
2021/10/28 06:37:47;;;;;;;56.95;32.83;;;;;;;7.56;100.00;100838.23;1725948;82;21092;-74
2021/10/28 06:40:14;;;;;;;64.10;33.00;;;;;;;7.63;100.00;100837.25;1717478;82;21501;-73
2021/10/28 06:42:41;;;;;;;56.65;34.00;;;;;;;7.69;100.00;100837.17;1724531;82;21591;-74
2021/10/28 06:45:08;;;;;;;53.85;29.37;;;;;;;7.75;100.00;100841.03;1730655;82;21049;-74
2021/10/28 06:47:35;;;;;;;54.77;30.60;;;;;;;7.82;100.00;100839.62;1721915;82;21678;-73
2021/10/28 06:50:06;;;;;;;59.65;32.35;;;;;;;7.87;100.00;100840.44;1724312;82;21065;-73
2021/10/28 06:52:46;;;;;;;59.77;32.75;;;;;;;7.91;100.00;100844.73;1738135;81;21522;-74
2021/10/28 06:55:06;;;;;;;;;;;;;;;7.96;100.00;100844.23;1733235;81;21008;-72
2021/10/28 06:57:47;;;;;;;58.28;33.15;;;;;;;7.99;100.00;100841.56;1725514;82;20479;-72
2021/10/28 07:02:45;;;;;;;57.78;33.25;;;;;;;8.09;100.00;100833.95;1748531;81;21087;-74
2021/10/28 07:05:12;;;;;;;55.83;33.35;;;;;;;8.16;100.00;100840.84;1742280;81;21698;-72
2021/10/28 07:07:39;;;;;;;59.48;34.15;;;;;;;8.20;98.88;100838.59;1739955;81;21103;-73
2021/10/28 07:12:47;;;;;;;55.75;33.15;;;;;;;8.27;97.99;100822.77;1736843;81;21546;-72
2021/10/28 07:15:19;;;;;;;62.08;33.80;;;;;;;8.32;98.12;100832.73;1725762;81;21004;-72
2021/10/28 07:20:46;;;;;;;58.73;32.90;;;;;;;8.39;98.33;100827.80;1756137;81;21705;-72
2021/10/28 07:28:19;;;;;;;65.30;34.95;;;;;;;8.49;97.67;100816.30;1740299;81;21090;-72
2021/10/28 07:30:47;;;;;;;57.48;34.40;;;;;;;8.50;96.81;100829.83;1734691;81;21381;-71
2021/10/28 07:36:12;;;;;;;60.50;32.48;;;;;;;8.60;96.58;100823.54;1726397;81;21068;-71
2021/10/28 08:14:15;;;;;;;56.75;31.25;;;;;;;9.40;92.35;100786.48;1751106;81;21584;-72
2021/10/28 08:16:44;;;;;;;49.58;29.92;;;;;;;9.43;93.37;100786.43;1756496;80;21255;-73
2021/10/28 08:19:00;;;;;;;52.33;28.75;;;;;;;9.50;93.64;100788.91;1781911;80;21076;-72
2021/10/28 08:29:21;;;;;;;49.98;29.00;;;;;;;9.77;91.46;100772.50;1729420;83;21131;-73
2021/10/28 08:31:44;;;;;;;54.58;31.27;;;;;;;9.85;90.98;100774.52;1755253;81;21053;-73
2021/10/28 08:34:11;;;;;;;52.50;30.45;;;;;;;9.96;90.72;100782.58;1748391;81;21021;-73
2021/10/28 08:36:41;;;;;;;50.85;31.48;;;;;;;10.02;89.97;100779.81;1731174;82;21016;-72
2021/10/28 08:39:07;;;;;;;52.33;28.98;;;;;;;10.09;89.81;100786.66;1731091;82;21127;-72
2021/10/28 08:41:34;;;;;;;49.48;27.60;;;;;;;10.17;89.64;100776.81;1731303;81;21065;-73
2021/10/28 08:44:01;;;;;;;48.87;27.45;;;;;;;10.27;90.73;100780.93;1731441;81;21178;-72
2021/10/28 08:46:28;;;;;;;45.98;27.20;;;;;;;10.40;89.94;100789.85;1731172;82;21195;-74
2021/10/28 08:48:58;;;;;;;49.90;26.55;;;;;;;10.52;90.57;100790.02;1746803;81;21073;-73
2021/10/28 08:59:20;;;;;;;48.75;27.10;;;;;;;10.86;88.79;100797.88;1730052;81;21550;-72
2021/10/28 09:24:26;;;;;;;39.25;23.47;;;;;;;11.93;82.04;100786.77;1732338;82;21120;-71
2021/10/28 09:26:59;;;;;;;40.05;23.12;;;;;;;12.10;82.62;100785.36;1725822;82;21029;-73
2021/10/28 09:29:35;;;;;;;38.00;23.38;;;;;;;12.24;81.50;100780.94;1739367;82;21081;-71
2021/10/28 09:34:39;;;;;;;41.20;22.73;;;;;;;12.33;80.32;100773.59;1738987;82;21155;-75
2021/10/28 09:48:45;;;;;;;36.20;21.57;;;;;;;12.84;80.76;100770.93;1742298;82;21034;-70
2021/10/28 09:51:02;;;;;;;;;;;;;;;12.93;77.61;100767.52;1748691;82;21084;-72
2021/10/28 09:53:36;;;;;;;37.67;20.52;;;;;;;12.98;76.88;100768.67;1748263;82;20166;-73
2021/10/28 09:58:44;;;;;;;40.65;20.15;;;;;;;13.16;77.10;100775.92;1731750;82;21139;-73
2021/10/28 10:01:42;;;;;;;30.05;17.25;;;;;;;13.29;77.38;100778.12;1746946;82;21527;-72
2021/10/28 10:04:09;;;;;;;34.80;20.95;;;;;;;13.37;77.48;100781.36;1723827;82;21088;-73
2021/10/28 10:06:38;;;;;;;45.60;25.65;;;;;;;13.57;77.00;100785.86;1747828;82;21092;-73
2021/10/28 10:09:03;;;;;;;39.78;23.40;;;;;;;13.77;76.46;100782.44;1740601;80;21065;-73
2021/10/28 10:11:33;;;;;;;36.98;21.57;;;;;;;14.00;73.98;100782.83;1738698;82;21120;-72
2021/10/28 10:14:01;;;;;;;32.95;19.25;;;;;;;14.18;72.44;100774.59;1739961;82;21466;-73
2021/10/28 10:16:30;;;;;;;32.00;19.40;;;;;;;14.36;70.72;100765.87;1720661;82;21022;-74
2021/10/28 10:18:59;;;;;;;30.62;18.02;;;;;;;14.66;70.66;100761.06;1685040;83;21036;-71
2021/10/28 10:21:33;;;;;;;29.27;17.20;;;;;;;15.30;69.93;100761.27;1658852;86;21064;-75
2021/10/28 10:24:30;;;;;;;27.13;15.38;;;;;;;16.02;67.01;100766.27;1668458;85;21117;-74
2021/10/28 10:30:26;;;;;;;29.42;15.78;;;;;;;16.81;63.81;100764.48;1670052;85;21050;-72
2021/10/28 12:46:00;;;;;;;39.18;19.80;;;;;;;14.60;73.25;100777.70;1703803;83;21173;-74
2021/10/28 12:50:52;;;;;;;25.97;13.68;;;;;;;14.54;72.51;100789.84;1676895;84;21647;-71
2021/10/28 12:56:19;;;;;;;26.17;13.83;;;;;;;14.43;72.45;100785.88;1692242;83;21051;-75
2021/10/28 13:04:13;;;;;;;22.60;12.73;;;;;;;14.40;73.65;100791.32;1684520;84;21090;-74
2021/10/28 13:06:51;;;;;;;21.77;12.40;;;;;;;14.37;73.20;100794.08;1690805;84;21084;-71
2021/10/28 13:50:34;;;;;;;22.80;11.73;;;;;;;13.77;76.84;100827.44;1676046;85;21078;-72
2021/10/28 13:58:16;;;;;;;27.07;13.62;;;;;;;13.70;77.20;100827.28;1687933;82;21122;-70
2021/10/28 14:15:00;;;;;;;11.03;7.05;;;;;;;13.63;76.80;100837.23;1570780;90;21645;-72
2021/10/28 14:20:05;;;;;;;25.95;13.38;;;;;;;13.49;78.28;100840.41;1686566;84;22225;-71
2021/10/28 14:38:26;;;;;;;24.55;13.13;;;;;;;13.36;79.34;100855.02;1682006;84;21108;-73
2021/10/28 15:03:01;;;;;;;29.60;14.65;;;;;;;13.00;80.29;100878.74;1672257;84;21034;-72
2021/10/28 15:35:33;;;;;;;28.32;14.40;;;;;;;12.84;82.72;100907.95;1695026;83;21243;-72
2021/10/28 15:38:06;;;;;;;29.60;16.02;;;;;;;12.82;82.92;100906.28;1697886;83;21917;-71
2021/10/28 15:40:51;;;;;;;29.77;14.83;;;;;;;12.80;82.91;100912.47;1700307;83;21229;-72
2021/10/28 15:43:47;;;;;;;26.42;15.25;;;;;;;12.79;83.38;100910.75;1686333;83;21063;-71
2021/10/28 16:00:22;;;;;;;25.17;14.00;;;;;;;12.73;83.96;100926.80;1689510;83;21090;-73
2021/10/28 16:23:54;;;;;;;21.17;12.00;;;;;;;12.57;85.51;100934.37;1692764;84;21742;-72
2021/10/28 16:26:21;;;;;;;23.42;10.03;;;;;;;12.56;85.93;100942.33;1690756;84;21090;-74
2021/10/28 16:28:48;;;;;;;21.55;11.53;;;;;;;12.52;86.01;100937.63;1692148;84;21066;-72
2021/10/28 16:31:16;;;;;;;18.75;12.13;;;;;;;12.51;85.98;100945.59;1689819;84;21174;-72
2021/10/28 16:33:44;;;;;;;21.23;11.95;;;;;;;12.48;86.47;100942.59;1692843;84;21603;-72
2021/10/28 16:36:10;;;;;;;25.57;13.15;;;;;;;12.47;87.99;100953.20;1690876;83;21095;-80
2021/10/28 16:38:38;;;;;;;22.55;12.43;;;;;;;12.46;87.05;100955.45;1665595;84;21114;-76
2021/10/28 16:41:04;;;;;;;24.12;13.20;;;;;;;12.43;86.69;100950.27;1671867;83;21113;-77
2021/10/28 16:43:31;;;;;;;20.85;13.18;;;;;;;12.39;87.38;100946.38;1678864;84;21154;-76
2021/10/28 16:45:58;;;;;;;25.65;13.15;;;;;;;12.38;86.87;100952.59;1665458;85;21968;-79
2021/10/28 16:48:24;;;;;;;23.27;13.53;;;;;;;12.34;87.13;100961.52;1678357;83;21091;-73
2021/10/28 16:50:51;;;;;;;31.55;13.90;;;;;;;12.31;87.20;100967.37;1688704;84;21113;-72
2021/10/28 16:53:20;;;;;;;25.85;13.48;;;;;;;12.30;87.81;100965.63;1689675;83;21546;-72
2021/10/28 16:55:48;;;;;;;23.83;13.68;;;;;;;12.27;87.91;100962.63;1686244;84;21098;-72
2021/10/28 16:58:14;;;;;;;23.75;14.38;;;;;;;12.22;87.60;100960.59;1692790;84;22114;-71
2021/10/28 17:00:42;;;;;;;18.67;10.10;;;;;;;12.21;88.50;100962.80;1692563;84;21059;-73
2021/10/28 17:03:09;;;;;;;19.87;11.20;;;;;;;12.20;88.25;100965.05;1685135;83;21062;-72
2021/10/28 17:05:35;;;;;;;25.27;13.08;;;;;;;12.18;88.51;100972.14;1683185;83;21648;-72
2021/10/28 17:08:02;;;;;;;16.25;9.03;;;;;;;12.16;88.49;100964.72;1689856;84;21126;-71
2021/10/28 17:10:29;;;;;;;24.35;13.98;;;;;;;12.16;88.80;100968.68;1678948;84;21334;-72
2021/10/28 17:12:57;;;;;;;27.58;14.10;;;;;;;12.15;89.29;100972.25;1687945;83;22149;-72
2021/10/28 17:15:26;;;;;;;30.02;14.78;;;;;;;12.13;89.30;100974.06;1684090;83;21043;-72
2021/10/28 17:17:54;;;;;;;22.90;12.90;;;;;;;12.12;89.11;100977.17;1684288;83;21633;-72
2021/10/28 17:20:20;;;;;;;30.45;15.85;;;;;;;12.09;89.15;100973.74;1680923;83;21143;-72
2021/10/28 17:22:49;;;;;;;31.70;15.75;;;;;;;12.09;89.53;100979.02;1682970;83;21158;-72
2021/10/28 17:25:21;;;;;;;27.40;15.15;;;;;;;12.09;89.32;100981.66;1685670;84;21179;-72
2021/10/28 17:27:48;;;;;;;25.97;14.73;;;;;;;12.07;89.57;100981.70;1681143;83;21165;-73
2021/10/28 17:30:15;;;;;;;26.85;16.27;;;;;;;12.08;90.16;100982.59;1680029;84;21157;-71
2021/10/28 17:32:44;;;;;;;28.75;16.65;;;;;;;12.10;90.80;100979.42;1686315;83;21055;-73
2021/10/28 17:35:11;;;;;;;28.57;15.88;;;;;;;12.11;91.15;100982.48;1676021;83;21200;-73
2021/10/28 17:37:38;;;;;;;25.05;14.75;;;;;;;12.10;90.62;100986.02;1676396;83;21078;-73
2021/10/28 17:40:06;;;;;;;27.10;17.25;;;;;;;12.09;90.43;100988.27;1688175;84;21581;-72
2021/10/28 17:42:34;;;;;;;37.63;19.52;;;;;;;12.07;90.29;100991.40;1675257;83;21127;-72
2021/10/28 17:45:02;;;;;;;29.18;15.10;;;;;;;12.07;90.10;100992.72;1673395;83;21081;-72
2021/10/28 17:47:28;;;;;;;24.82;15.20;;;;;;;12.07;90.77;100991.40;1687454;84;21138;-71
2021/10/28 17:49:56;;;;;;;21.90;10.68;;;;;;;12.07;91.01;100994.04;1686015;84;21573;-73
2021/10/28 17:52:22;;;;;;;19.55;10.38;;;;;;;12.07;90.70;100994.04;1683302;83;21115;-73
2021/10/28 17:54:49;;;;;;;17.87;9.93;;;;;;;12.05;91.35;100986.62;1678789;84;21109;-71
2021/10/28 17:57:15;;;;;;;26.93;16.25;;;;;;;12.08;91.80;100995.79;1672862;83;21652;-70
2021/10/28 17:59:42;;;;;;;25.75;15.00;;;;;;;12.06;91.08;101001.56;1668783;84;21094;-80
2021/10/28 18:02:10;;;;;;;32.28;15.85;;;;;;;12.03;91.13;101002.95;1675904;83;21142;-76
2021/10/28 18:04:40;;;;;;;27.48;13.35;;;;;;;11.99;90.74;101005.30;1676848;84;21086;-77
2021/10/28 18:07:08;;;;;;;27.52;16.30;;;;;;;11.93;90.48;101004.54;1673431;84;22084;-78
2021/10/28 18:09:37;;;;;;;27.02;15.20;;;;;;;11.90;90.53;101013.02;1683774;83;21096;-77
2021/10/28 18:12:06;;;;;;;27.45;15.08;;;;;;;11.86;90.57;101016.15;1675778;83;21129;-78
2021/10/28 18:14:32;;;;;;;35.08;16.65;;;;;;;11.83;91.90;101009.65;1694723;83;21061;-77
2021/10/28 18:17:00;;;;;;;32.73;15.78;;;;;;;11.81;91.45;101007.97;1698855;83;21580;-77
2021/10/28 18:19:28;;;;;;;28.50;15.80;;;;;;;11.80;91.31;101015.02;1688849;82;21061;-76
2021/10/28 18:21:56;;;;;;;28.85;16.35;;;;;;;11.77;91.44;101009.81;1698552;83;21056;-77
2021/10/28 18:24:25;;;;;;;30.75;16.17;;;;;;;11.77;91.54;101013.77;1699996;83;22160;-77
2021/10/28 18:26:52;;;;;;;35.80;17.67;;;;;;;11.75;91.82;101008.98;1691463;83;21061;-78
2021/10/28 18:29:19;;;;;;;26.55;16.45;;;;;;;11.75;92.01;101008.98;1677972;83;21136;-78
2021/10/28 18:31:46;;;;;;;29.87;17.40;;;;;;;11.74;91.83;101009.91;1714397;83;21068;-79
2021/10/28 18:34:14;;;;;;;24.77;13.88;;;;;;;11.74;91.94;101009.45;1721316;83;21575;-79
2021/10/28 18:36:41;;;;;;;19.77;11.80;;;;;;;11.73;92.24;101008.16;1707210;83;21543;-78
2021/10/28 18:39:09;;;;;;;29.23;15.23;;;;;;;11.76;93.02;101011.59;1698393;83;21030;-78
2021/10/28 18:41:36;;;;;;;27.65;17.45;;;;;;;11.76;93.07;101013.37;1687743;83;21087;-76
2021/10/28 18:44:04;;;;;;;29.95;17.82;;;;;;;11.79;92.71;101013.27;1658779;83;21110;-77
2021/10/28 18:46:33;;;;;;;21.40;12.25;;;;;;;11.78;92.59;101015.52;1686146;83;21136;-77
2021/10/28 18:48:59;;;;;;;30.90;17.55;;;;;;;11.80;93.01;101019.41;1671111;85;21570;-76
2021/10/28 18:51:25;;;;;;;31.07;18.50;;;;;;;11.80;92.87;101025.58;1671408;85;21117;-77
2021/10/28 18:53:52;;;;;;;33.00;17.27;;;;;;;11.79;92.76;101026.47;1670952;85;21294;-76
2021/10/28 18:56:19;;;;;;;29.82;17.02;;;;;;;11.79;92.67;101021.66;1671219;85;21556;-76
2021/10/28 18:58:46;;;;;;;32.45;17.95;;;;;;;11.78;92.70;101032.67;1671829;83;21133;-77
2021/10/28 19:01:15;;;;;;;28.57;16.95;;;;;;;11.77;92.73;101032.24;1671398;85;21528;-79
2021/10/28 19:03:43;;;;;;;29.37;15.70;;;;;;;11.78;92.68;101037.95;1670640;85;21129;-76
2021/10/28 19:06:11;;;;;;;26.77;15.68;;;;;;;11.80;94.02;101035.25;1671063;85;21144;-76
2021/10/28 19:08:40;;;;;;;32.55;16.52;;;;;;;11.81;94.47;101035.22;1670825;85;21140;-79
2021/10/28 19:11:09;;;;;;;29.42;16.45;;;;;;;11.81;93.91;101040.95;1670922;84;21105;-78
2021/10/28 19:13:38;;;;;;;24.27;14.25;;;;;;;11.81;93.98;101041.81;1670625;85;21533;-78